Time;durP1;ratioP1;P1;durP2;ratioP2;P2;SDS_P1;SDS_P2;PMS_P1;PMS_P2;Temp;Humidity;BMP_temperature;BMP_pressure;BME280_temperature;BME280_humidity;BME280_pressure;Samples;Min_cycle;Max_cycle;Signal;HPM_P1;HPM_P2
2022/10/24 00:01:47;;;;;;;6.93;5.33;;;17.60;99.90;;;;;;5055724;28;20820;-73
2022/10/24 00:04:12;;;;;;;6.73;5.57;;;17.60;99.90;;;;;;5073494;28;20169;-70
2022/10/24 00:06:39;;;;;;;8.97;5.80;;;17.70;99.90;;;;;;5071667;28;20173;-70
2022/10/24 00:09:05;;;;;;;5.93;4.73;;;17.60;99.90;;;;;;5053357;28;20247;-70
2022/10/24 00:11:31;;;;;;;6.10;5.60;;;17.60;99.90;;;;;;5073793;28;20756;-70
2022/10/24 00:13:57;;;;;;;8.73;5.70;;;17.50;99.90;;;;;;5025601;28;20185;-70
2022/10/24 00:16:23;;;;;;;5.50;5.20;;;17.60;99.90;;;;;;5079963;28;20672;-70
2022/10/24 00:18:48;;;;;;;6.07;5.57;;;17.60;99.90;;;;;;5087349;28;20172;-74
2022/10/24 00:21:14;;;;;;;6.27;5.67;;;17.60;99.90;;;;;;5093830;28;20180;-70
2022/10/24 00:23:40;;;;;;;6.00;5.40;;;17.60;99.90;;;;;;5093717;28;20180;-70
2022/10/24 00:26:06;;;;;;;9.63;5.40;;;17.60;99.90;;;;;;5092897;28;20471;-70
2022/10/24 00:28:34;;;;;;;7.83;5.27;;;17.60;99.90;;;;;;5093406;28;20188;-70
2022/10/24 00:31:00;;;;;;;7.13;5.50;;;17.60;99.90;;;;;;5090014;28;20415;-70
2022/10/24 00:33:26;;;;;;;6.83;5.20;;;17.60;99.90;;;;;;5082209;28;20418;-70
2022/10/24 00:35:52;;;;;;;6.50;5.00;;;17.70;99.90;;;;;;5080234;28;20403;-71
2022/10/24 00:38:18;;;;;;;10.30;6.50;;;17.70;99.90;;;;;;5079038;28;20183;-70
2022/10/24 00:40:44;;;;;;;7.00;5.10;;;17.70;99.90;;;;;;5081542;28;20451;-70
2022/10/24 00:43:18;;;;;;;6.30;5.80;;;17.70;99.90;;;;;;5080556;28;20518;-70
2022/10/24 00:46:03;;;;;;;5.53;5.23;;;17.70;99.90;;;;;;5081493;28;20172;-70
2022/10/24 00:48:49;;;;;;;6.17;5.67;;;17.70;99.90;;;;;;5079443;28;20743;-69
2022/10/24 00:51:26;;;;;;;5.40;5.00;;;17.70;99.90;;;;;;5070273;28;20451;-69
2022/10/24 00:53:56;;;;;;;6.27;5.63;;;17.80;99.90;;;;;;5071876;28;20823;-71
2022/10/24 00:56:26;;;;;;;5.30;4.90;;;17.80;99.90;;;;;;5071933;28;20408;-69
2022/10/24 00:58:54;;;;;;;6.23;5.73;;;17.80;99.90;;;;;;5071196;28;20418;-70
2022/10/24 01:01:19;;;;;;;6.90;6.20;;;17.80;99.90;;;;;;5075998;28;20418;-70
2022/10/24 01:03:45;;;;;;;8.90;5.03;;;17.70;99.90;;;;;;5080509;28;20408;-70
2022/10/24 01:06:26;;;;;;;5.53;5.03;;;17.70;99.90;;;;;;5079954;28;20369;-70
2022/10/24 01:09:19;;;;;;;5.97;5.37;;;17.70;99.90;;;;;;5063165;28;20161;-74
2022/10/24 01:11:50;;;;;;;4.87;4.47;;;17.70;99.90;;;;;;5058975;28;20497;-70
2022/10/24 01:14:30;;;;;;;6.80;4.70;;;17.80;99.90;;;;;;5072324;28;20541;-70
2022/10/24 01:17:17;;;;;;;6.40;4.90;;;17.80;99.90;;;;;;5075935;28;20856;-70
2022/10/24 01:20:23;;;;;;;6.63;4.57;;;17.90;99.90;;;;;;5081847;28;20802;-70
2022/10/24 01:23:13;;;;;;;6.00;4.43;;;17.90;99.90;;;;;;5058830;28;20518;-74
2022/10/24 01:25:58;;;;;;;5.50;4.40;;;17.90;99.90;;;;;;5072407;28;20396;-70
2022/10/24 01:28:31;;;;;;;5.23;4.70;;;18.00;99.90;;;;;;5072479;28;20419;-70
2022/10/24 01:31:11;;;;;;;5.07;3.93;;;18.00;99.90;;;;;;5071286;28;20404;-70
2022/10/24 01:33:42;;;;;;;7.33;4.47;;;18.00;99.90;;;;;;5054290;28;20911;-69
2022/10/24 01:36:18;;;;;;;11.93;5.10;;;17.90;99.90;;;;;;5071500;28;20450;-70
2022/10/24 01:38:50;;;;;;;5.47;4.97;;;17.90;99.90;;;;;;5020210;28;20449;-70
2022/10/24 01:41:20;;;;;;;6.93;4.07;;;17.90;99.90;;;;;;5071481;28;20442;-70
2022/10/24 01:44:01;;;;;;;6.23;3.80;;;17.90;99.90;;;;;;5072399;28;20476;-70
2022/10/24 01:46:30;;;;;;;4.93;4.63;;;18.00;99.90;;;;;;5072189;28;20770;-70
2022/10/24 01:49:03;;;;;;;4.80;4.40;;;17.90;99.90;;;;;;5071295;28;20557;-70
2022/10/24 01:51:30;;;;;;;4.87;3.90;;;17.90;99.90;;;;;;5054490;28;20402;-70
2022/10/24 01:53:57;;;;;;;6.37;5.00;;;17.90;99.90;;;;;;5071336;28;20506;-70
2022/10/24 01:56:26;;;;;;;5.63;4.50;;;17.90;99.90;;;;;;5072057;28;20494;-70
2022/10/24 01:58:52;;;;;;;5.97;4.60;;;17.90;99.90;;;;;;5072335;28;20435;-73
2022/10/24 02:01:22;;;;;;;6.80;4.50;;;17.80;99.90;;;;;;5054759;28;20519;-70
2022/10/24 02:03:55;;;;;;;16.73;4.53;;;17.90;99.90;;;;;;5096447;28;20526;-70
2022/10/24 02:06:28;;;;;;;5.10;4.60;;;17.80;99.90;;;;;;5096447;28;20785;-70
2022/10/24 02:08:57;;;;;;;8.90;4.33;;;17.80;99.90;;;;;;5095773;28;20855;-73
2022/10/24 02:11:23;;;;;;;5.73;4.47;;;17.90;99.90;;;;;;5096077;28;20905;-70
2022/10/24 02:13:57;;;;;;;9.73;5.00;;;17.80;99.90;;;;;;5096314;28;20786;-70
2022/10/24 02:16:22;;;;;;;4.90;4.23;;;17.80;99.90;;;;;;5095915;28;20462;-70
2022/10/24 02:18:51;;;;;;;4.90;3.63;;;17.80;99.90;;;;;;5096250;28;20401;-70
2022/10/24 02:21:34;;;;;;;8.33;4.30;;;17.70;99.90;;;;;;5095033;28;20694;-70
2022/10/24 02:24:11;;;;;;;5.50;4.93;;;17.70;99.90;;;;;;5095045;28;20489;-70
2022/10/24 02:26:55;;;;;;;6.83;4.77;;;17.80;99.90;;;;;;5096034;28;20406;-70
2022/10/24 02:29:43;;;;;;;4.77;4.27;;;17.70;99.90;;;;;;5095663;28;20406;-69
2022/10/24 02:32:14;;;;;;;7.37;4.20;;;17.70;99.90;;;;;;5094501;28;20426;-70
2022/10/24 02:34:41;;;;;;;6.83;3.80;;;17.70;99.90;;;;;;5095929;28;20414;-70
2022/10/24 02:37:09;;;;;;;4.30;3.90;;;17.70;99.90;;;;;;5094997;28;20414;-70
2022/10/24 02:39:36;;;;;;;4.57;4.13;;;17.80;99.90;;;;;;5095647;28;20438;-69
2022/10/24 02:42:04;;;;;;;4.80;3.90;;;17.80;99.90;;;;;;5094697;28;20852;-69
2022/10/24 02:44:33;;;;;;;7.03;4.10;;;17.70;99.90;;;;;;5095642;28;20456;-69
2022/10/24 02:47:02;;;;;;;7.17;4.40;;;17.80;99.90;;;;;;5094908;28;20426;-70
2022/10/24 02:49:27;;;;;;;4.37;4.07;;;17.80;99.90;;;;;;5095537;28;20513;-70
2022/10/24 02:51:54;;;;;;;6.70;4.20;;;17.80;99.90;;;;;;5095155;28;20833;-72
2022/10/24 02:54:20;;;;;;;3.70;3.40;;;17.80;99.90;;;;;;5094703;28;20245;-69
2022/10/24 02:56:50;;;;;;;3.87;3.67;;;17.80;99.90;;;;;;5095340;28;20414;-69
2022/10/24 02:59:16;;;;;;;5.83;4.30;;;17.80;99.90;;;;;;5094593;28;20436;-70
2022/10/24 03:01:42;;;;;;;6.00;3.70;;;17.80;99.90;;;;;;5095417;28;20490;-70
2022/10/24 03:04:07;;;;;;;4.80;4.30;;;17.80;99.90;;;;;;5094468;28;20172;-69
2022/10/24 03:06:33;;;;;;;5.40;4.47;;;17.90;99.90;;;;;;5095280;28;20177;-69
2022/10/24 03:08:59;;;;;;;6.20;4.20;;;17.90;99.90;;;;;;5094422;28;20226;-70
2022/10/24 03:11:24;;;;;;;4.90;4.50;;;17.90;99.90;;;;;;5094805;28;20255;-68
2022/10/24 03:13:50;;;;;;;5.00;4.50;;;17.90;99.90;;;;;;5095133;28;20180;-67
2022/10/24 03:16:16;;;;;;;4.40;4.00;;;17.90;99.90;;;;;;5093954;28;20306;-68
2022/10/24 03:18:41;;;;;;;6.37;4.40;;;17.90;99.90;;;;;;5095081;28;20242;-67
2022/10/24 03:21:07;;;;;;;4.63;4.27;;;17.90;99.90;;;;;;5094099;28;20192;-68
2022/10/24 03:23:33;;;;;;;7.07;4.50;;;17.90;99.90;;;;;;5094896;28;20517;-68
2022/10/24 03:25:59;;;;;;;5.30;4.97;;;17.90;99.90;;;;;;5094253;28;20543;-72
2022/10/24 03:28:25;;;;;;;5.00;4.50;;;17.90;99.90;;;;;;5094482;28;20276;-67
2022/10/24 03:30:52;;;;;;;4.57;4.17;;;17.80;99.90;;;;;;5094776;28;20534;-68
2022/10/24 03:33:19;;;;;;;6.63;4.67;;;17.80;99.90;;;;;;5093949;28;20173;-68
2022/10/24 03:35:45;;;;;;;4.33;4.00;;;17.80;99.90;;;;;;5094324;28;20899;-68
2022/10/24 03:38:11;;;;;;;4.90;3.77;;;17.80;99.90;;;;;;5093975;28;20410;-68
2022/10/24 03:40:37;;;;;;;4.80;4.40;;;17.90;99.90;;;;;;5094605;28;20465;-68
2022/10/24 03:43:03;;;;;;;8.80;8.10;;;17.90;99.90;;;;;;5093797;28;20635;-68
2022/10/24 03:45:29;;;;;;;7.13;2.90;;;17.90;99.90;;;;;;5094228;28;20410;-68
2022/10/24 03:47:55;;;;;;;3.60;3.00;;;17.90;99.90;;;;;;5094055;28;20920;-68
2022/10/24 03:50:21;;;;;;;5.93;5.43;;;17.90;99.90;;;;;;5093672;28;20663;-68
2022/10/24 03:52:46;;;;;;;7.87;7.27;;;17.90;99.90;;;;;;5094437;28;20410;-68
2022/10/24 03:55:12;;;;;;;4.17;2.90;;;17.80;99.90;;;;;;5075410;28;20180;-67
2022/10/24 03:57:38;;;;;;;5.47;2.97;;;17.90;99.90;;;;;;5094265;28;20172;-68
2022/10/24 04:00:05;;;;;;;4.80;2.60;;;17.80;99.90;;;;;;5093379;28;20266;-68
2022/10/24 04:02:30;;;;;;;4.73;4.17;;;17.90;99.90;;;;;;5094320;28;20407;-68
2022/10/24 04:04:56;;;;;;;4.70;4.30;;;17.90;99.90;;;;;;5094163;28;20571;-68
2022/10/24 04:07:22;;;;;;;5.10;4.60;;;17.80;99.90;;;;;;5093257;28;20670;-68
2022/10/24 04:09:48;;;;;;;4.80;4.50;;;17.70;99.90;;;;;;5094004;28;20267;-69
2022/10/24 04:12:14;;;;;;;4.83;3.00;;;17.70;99.90;;;;;;5075150;28;20255;-68
2022/10/24 04:14:40;;;;;;;5.20;3.40;;;17.60;99.90;;;;;;5093920;28;20518;-68
2022/10/24 04:17:06;;;;;;;3.73;3.43;;;17.60;99.90;;;;;;5092900;28;21018;-68
2022/10/24 04:19:31;;;;;;;8.20;3.30;;;17.60;99.90;;;;;;5093439;28;20450;-68
2022/10/24 04:21:57;;;;;;;6.00;5.13;;;17.70;99.90;;;;;;5075032;28;20529;-67
2022/10/24 04:24:23;;;;;;;8.80;5.33;;;17.70;99.90;;;;;;5092737;28;20199;-68
2022/10/24 04:26:49;;;;;;;6.93;6.37;;;17.70;99.90;;;;;;5093841;28;20403;-68
2022/10/24 04:29:15;;;;;;;4.83;3.57;;;17.70;99.90;;;;;;5092860;28;20522;-68
2022/10/24 04:31:40;;;;;;;4.70;3.23;;;17.80;99.90;;;;;;5093583;28;20263;-68
2022/10/24 04:34:06;;;;;;;7.73;7.13;;;17.80;99.90;;;;;;5092543;28;20531;-68
2022/10/24 04:36:33;;;;;;;7.00;3.30;;;17.80;99.90;;;;;;5093489;28;20177;-68
2022/10/24 04:38:59;;;;;;;5.40;3.70;;;17.80;99.90;;;;;;5093377;28;20187;-67
2022/10/24 04:41:24;;;;;;;3.30;2.83;;;17.80;99.90;;;;;;5074435;28;20765;-68
2022/10/24 04:43:51;;;;;;;6.80;6.10;;;17.70;99.90;;;;;;5093287;28;20168;-68
2022/10/24 04:46:17;;;;;;;5.13;4.47;;;17.70;99.90;;;;;;5092069;28;20662;-68
2022/10/24 04:48:43;;;;;;;5.80;5.20;;;17.70;99.90;;;;;;5093338;28;20430;-68
2022/10/24 04:51:09;;;;;;;6.73;4.70;;;17.60;99.90;;;;;;5092398;28;20180;-68
2022/10/24 04:53:35;;;;;;;3.93;2.80;;;17.70;99.90;;;;;;5093195;28;20415;-68
2022/10/24 04:56:01;;;;;;;4.63;2.53;;;17.70;99.90;;;;;;5093033;28;20172;-73
2022/10/24 04:58:26;;;;;;;3.73;3.00;;;17.70;99.90;;;;;;5074313;28;20271;-68
2022/10/24 05:00:52;;;;;;;4.47;4.07;;;17.70;99.90;;;;;;5092943;28;20204;-68
2022/10/24 05:03:19;;;;;;;6.90;4.70;;;17.70;99.90;;;;;;5092256;28;20668;-68
2022/10/24 05:05:46;;;;;;;4.43;4.03;;;17.70;99.90;;;;;;5093329;28;20183;-68
2022/10/24 05:08:11;;;;;;;3.90;3.57;;;17.70;99.90;;;;;;5092307;28;20442;-68
2022/10/24 05:10:37;;;;;;;6.53;3.67;;;17.70;99.90;;;;;;5092974;28;20459;-68
2022/10/24 05:13:03;;;;;;;5.00;4.60;;;17.70;99.90;;;;;;5092566;28;20168;-73
2022/10/24 05:15:29;;;;;;;7.33;3.97;;;17.70;99.90;;;;;;5092200;28;20426;-68
2022/10/24 05:17:56;;;;;;;8.80;4.20;;;17.70;99.90;;;;;;5092445;28;20454;-68
2022/10/24 05:20:21;;;;;;;6.00;4.63;;;17.60;99.90;;;;;;5073620;28;20691;-68
2022/10/24 05:22:48;;;;;;;4.23;3.90;;;17.70;99.90;;;;;;5092749;28;20455;-68
2022/10/24 05:25:14;;;;;;;3.77;3.47;;;17.70;99.90;;;;;;5091990;28;20251;-68
2022/10/24 05:27:40;;;;;;;4.17;3.40;;;17.70;99.90;;;;;;5092649;28;20494;-68
2022/10/24 05:30:06;;;;;;;4.00;3.47;;;17.70;99.90;;;;;;5092053;28;20179;-72
2022/10/24 05:32:33;;;;;;;6.90;6.30;;;17.70;99.90;;;;;;5092476;28;20759;-68
2022/10/24 05:34:58;;;;;;;4.20;3.47;;;17.60;99.90;;;;;;5091866;28;20399;-68
2022/10/24 05:37:24;;;;;;;9.73;3.20;;;17.60;99.90;;;;;;5091826;28;20406;-68
2022/10/24 05:39:49;;;;;;;5.17;4.67;;;17.60;99.90;;;;;;5092550;28;20212;-68
2022/10/24 05:42:15;;;;;;;6.37;3.90;;;17.70;99.90;;;;;;5091727;28;20259;-68
2022/10/24 05:44:41;;;;;;;3.63;3.27;;;17.60;99.90;;;;;;5092375;28;20192;-67
2022/10/24 05:47:07;;;;;;;4.17;3.83;;;17.60;99.90;;;;;;5091888;28;20177;-72
2022/10/24 05:49:33;;;;;;;4.73;3.33;;;17.60;99.90;;;;;;5092274;28;20259;-68
2022/10/24 05:51:59;;;;;;;2.97;2.77;;;17.60;99.90;;;;;;5092449;28;20305;-68
2022/10/24 05:54:25;;;;;;;6.20;2.60;;;17.60;99.90;;;;;;5091561;28;20884;-68
2022/10/24 05:56:50;;;;;;;5.30;4.80;;;17.60;99.90;;;;;;5074155;28;20172;-68
2022/10/24 05:59:16;;;;;;;3.90;3.60;;;17.70;99.90;;;;;;5073325;28;20176;-68
2022/10/24 06:01:42;;;;;;;4.87;4.13;;;17.70;99.90;;;;;;5092291;28;20621;-67
2022/10/24 06:04:08;;;;;;;5.20;4.80;;;17.70;99.90;;;;;;5091527;28;20184;-72
2022/10/24 06:06:38;;;;;;;4.30;3.90;;;17.80;99.90;;;;;;5092318;28;20402;-68
2022/10/24 06:09:04;;;;;;;3.70;2.53;;;17.70;99.90;;;;;;5092190;28;20214;-68
2022/10/24 06:11:29;;;;;;;4.40;2.73;;;17.70;99.90;;;;;;5091068;28;20403;-68
2022/10/24 06:13:55;;;;;;;5.73;4.60;;;17.70;99.90;;;;;;5091864;28;20168;-67
2022/10/24 06:16:21;;;;;;;4.33;3.50;;;17.70;99.90;;;;;;5090973;28;20224;-68
2022/10/24 06:18:46;;;;;;;11.33;5.30;;;17.70;99.90;;;;;;5092092;28;20188;-68
2022/10/24 06:21:14;;;;;;;5.20;4.80;;;17.80;99.90;;;;;;5091173;28;20207;-67
2022/10/24 06:23:39;;;;;;;2.50;2.40;;;17.80;99.90;;;;;;5092227;28;20190;-68
2022/10/24 06:26:10;;;;;;;2.40;2.30;;;17.80;99.90;;;;;;5092077;28;20395;-68
2022/10/24 06:28:37;;;;;;;5.27;4.93;;;17.80;99.90;;;;;;5091977;28;20181;-68
2022/10/24 06:31:03;;;;;;;6.30;5.80;;;17.70;99.90;;;;;;5091961;28;20414;-68
2022/10/24 06:33:29;;;;;;;3.93;3.00;;;17.70;99.90;;;;;;5091082;28;20399;-68
2022/10/24 06:35:59;;;;;;;3.70;3.40;;;17.70;99.90;;;;;;5091927;28;20418;-68
2022/10/24 06:38:25;;;;;;;4.60;3.30;;;17.70;99.90;;;;;;5091107;28;20410;-68
2022/10/24 06:40:50;;;;;;;3.03;2.80;;;17.70;99.90;;;;;;5091766;28;20442;-68
2022/10/24 06:43:18;;;;;;;2.60;2.40;;;17.80;99.90;;;;;;5091128;28;20533;-68
2022/10/24 06:45:44;;;;;;;6.60;4.53;;;17.80;99.90;;;;;;5093636;28;20173;-68
2022/10/24 06:48:10;;;;;;;4.03;3.60;;;17.80;99.90;;;;;;5095278;28;20411;-73
2022/10/24 06:50:39;;;;;;;4.73;4.30;;;17.80;99.90;;;;;;5095246;28;20410;-68
2022/10/24 06:53:08;;;;;;;4.10;3.77;;;17.70;99.90;;;;;;5095523;28;20410;-68
2022/10/24 06:55:37;;;;;;;3.40;2.73;;;17.70;99.90;;;;;;5095031;28;20452;-68
2022/10/24 06:58:04;;;;;;;6.33;3.20;;;17.70;99.90;;;;;;5095446;28;20493;-68
2022/10/24 07:00:29;;;;;;;6.80;5.77;;;17.70;99.90;;;;;;5094372;28;20462;-68
2022/10/24 07:02:55;;;;;;;3.60;2.30;;;17.80;99.90;;;;;;5077396;28;20435;-67
2022/10/24 07:05:21;;;;;;;3.80;2.80;;;17.70;99.90;;;;;;5094298;28;20184;-68
2022/10/24 07:07:46;;;;;;;18.63;10.00;;;17.70;99.90;;;;;;5095518;28;20180;-68
2022/10/24 07:10:13;;;;;;;3.90;3.60;;;17.70;99.90;;;;;;5094264;28;20180;-73
2022/10/24 07:12:39;;;;;;;5.33;4.73;;;17.70;99.90;;;;;;5095151;28;20557;-68
2022/10/24 07:15:05;;;;;;;5.03;4.63;;;17.70;99.90;;;;;;5095085;28;20411;-68
2022/10/24 07:17:41;;;;;;;3.17;2.80;;;17.70;99.90;;;;;;5094211;28;21083;-68
2022/10/24 07:20:08;;;;;;;4.57;3.40;;;17.70;99.90;;;;;;5094747;28;20986;-68
2022/10/24 07:22:34;;;;;;;3.13;1.60;;;17.80;99.90;;;;;;5094494;28;20449;-68
2022/10/24 07:25:00;;;;;;;6.03;2.23;;;17.90;99.90;;;;;;5094700;28;20909;-68
2022/10/24 07:27:26;;;;;;;5.43;3.83;;;17.90;99.90;;;;;;5094039;28;20406;-68
2022/10/24 07:29:52;;;;;;;5.47;4.30;;;17.90;99.90;;;;;;5094654;28;20199;-67
2022/10/24 07:32:19;;;;;;;2.93;2.73;;;17.80;99.90;;;;;;5093749;28;20180;-68
2022/10/24 07:34:46;;;;;;;3.23;2.83;;;17.90;99.90;;;;;;5076915;28;20529;-68
2022/10/24 07:37:16;;;;;;;4.03;2.60;;;18.00;99.90;;;;;;5076641;28;20878;-73
2022/10/24 07:39:42;;;;;;;7.50;5.33;;;18.00;99.90;;;;;;5094558;28;20461;-68
2022/10/24 07:42:11;;;;;;;3.77;3.40;;;18.00;99.90;;;;;;5094679;28;20446;-67
2022/10/24 07:44:36;;;;;;;4.57;2.90;;;18.10;99.90;;;;;;5094026;28;20429;-68
2022/10/24 07:47:05;;;;;;;6.63;3.23;;;18.10;99.90;;;;;;5094745;28;20418;-68
2022/10/24 07:49:32;;;;;;;3.00;2.80;;;18.10;99.90;;;;;;5093691;28;20279;-67
2022/10/24 07:51:58;;;;;;;4.40;3.40;;;18.10;99.90;;;;;;5094559;28;20410;-68
2022/10/24 07:54:25;;;;;;;3.50;3.27;;;18.10;99.90;;;;;;5093829;28;20736;-68
2022/10/24 07:56:51;;;;;;;4.17;3.23;;;18.10;99.90;;;;;;5093365;28;20407;-68
2022/10/24 07:59:16;;;;;;;3.90;3.60;;;18.10;99.90;;;;;;5093342;28;20409;-69
2022/10/24 08:01:42;;;;;;;5.17;4.77;;;18.20;99.90;;;;;;5094198;28;20202;-68
2022/10/24 08:04:09;;;;;;;2.73;2.43;;;18.30;99.90;;;;;;5094126;28;20222;-68
2022/10/24 08:06:34;;;;;;;2.47;2.27;;;18.40;99.90;;;;;;5093362;28;20853;-67
2022/10/24 08:09:00;;;;;;;5.97;5.37;;;18.40;99.90;;;;;;5093917;28;20422;-68
2022/10/24 08:11:27;;;;;;;4.07;3.77;;;18.50;99.90;;;;;;5093190;28;20181;-68
2022/10/24 08:13:56;;;;;;;3.93;3.63;;;18.60;99.90;;;;;;5075923;28;20517;-68
2022/10/24 08:16:22;;;;;;;3.77;2.70;;;18.60;99.90;;;;;;5092724;28;20461;-68
2022/10/24 08:18:49;;;;;;;4.30;2.70;;;18.60;99.90;;;;;;5093969;28;20420;-68
2022/10/24 08:21:17;;;;;;;4.10;2.70;;;18.70;99.90;;;;;;5094087;28;20533;-72
2022/10/24 08:23:46;;;;;;;2.80;2.60;;;18.80;99.90;;;;;;5093798;28;20470;-68
2022/10/24 08:26:15;;;;;;;4.90;4.50;;;18.80;99.90;;;;;;5093769;28;20485;-68
2022/10/24 08:28:41;;;;;;;4.03;3.00;;;18.80;99.90;;;;;;5093359;28;20490;-68
2022/10/24 08:31:10;;;;;;;3.03;2.50;;;18.80;99.90;;;;;;5093633;28;20754;-68
2022/10/24 08:33:37;;;;;;;6.60;4.10;;;18.80;99.90;;;;;;5092770;28;20409;-68
2022/10/24 08:36:06;;;;;;;3.87;2.40;;;18.80;99.90;;;;;;5093529;28;20410;-67
2022/10/24 08:38:32;;;;;;;2.53;2.17;;;18.80;99.90;;;;;;5092642;28;20489;-68
2022/10/24 08:40:59;;;;;;;4.00;2.33;;;18.90;99.90;;;;;;5093450;28;20457;-68
2022/10/24 08:43:25;;;;;;;4.37;2.87;;;18.90;99.90;;;;;;5092642;28;20827;-68
2022/10/24 08:46:09;;;;;;;2.87;2.67;;;18.90;99.90;;;;;;5093252;28;20410;-68
2022/10/24 08:48:43;;;;;;;3.47;3.17;;;18.90;99.90;;;;;;5092483;28;20403;-68
2022/10/24 08:51:33;;;;;;;3.63;2.70;;;18.90;99.90;;;;;;5093335;28;20411;-68
2022/10/24 08:54:00;;;;;;;3.30;2.33;;;18.90;99.90;;;;;;5093227;28;20766;-68
2022/10/24 08:56:30;;;;;;;6.63;3.00;;;19.00;99.90;;;;;;5074497;28;20418;-68
2022/10/24 08:58:58;;;;;;;2.67;2.47;;;19.10;99.90;;;;;;5093498;28;20519;-67
2022/10/24 09:01:55;;;;;;;2.20;2.10;;;19.20;99.90;;;;;;5091934;28;20937;-68
2022/10/24 09:04:25;;;;;;;3.60;3.00;;;19.20;99.90;;;;;;5090683;28;20426;-68
2022/10/24 09:06:53;;;;;;;2.60;1.90;;;19.10;99.90;;;;;;5093309;28;20426;-67
2022/10/24 09:09:41;;;;;;;3.50;1.80;;;19.10;99.90;;;;;;5092371;28;20417;-68
2022/10/24 09:12:13;;;;;;;5.33;5.00;;;19.10;99.90;;;;;;5074699;28;20445;-67
2022/10/24 09:14:41;;;;;;;3.63;2.10;;;19.10;99.90;;;;;;5092081;28;20903;-68
2022/10/24 09:17:18;;;;;;;4.70;2.47;;;19.10;99.90;;;;;;5092916;28;20454;-67
2022/10/24 09:20:24;;;;;;;3.43;2.30;;;19.00;99.90;;;;;;5092813;28;20499;-68
2022/10/24 09:22:52;;;;;;;3.00;2.80;;;18.90;99.90;;;;;;4991061;28;20427;-68
2022/10/24 09:25:22;;;;;;;8.13;3.37;;;18.80;99.90;;;;;;5073286;28;20456;-72
2022/10/24 09:27:51;;;;;;;4.00;2.90;;;18.90;99.90;;;;;;5092639;28;20411;-67
2022/10/24 09:30:24;;;;;;;3.23;3.00;;;18.90;99.90;;;;;;5092333;28;20475;-68
2022/10/24 09:32:51;;;;;;;3.53;3.13;;;19.00;99.90;;;;;;5084089;28;20398;-68
2022/10/24 09:35:23;;;;;;;3.37;2.43;;;19.10;99.90;;;;;;5063972;28;20461;-73
2022/10/24 09:37:54;;;;;;;3.40;2.60;;;19.20;99.90;;;;;;5063511;28;20807;-68
2022/10/24 09:40:31;;;;;;;3.60;3.30;;;19.20;99.90;;;;;;5079825;28;20938;-68
2022/10/24 09:43:17;;;;;;;5.90;4.70;;;19.20;99.90;;;;;;5080165;28;20412;-69
2022/10/24 09:45:48;;;;;;;4.97;2.93;;;19.20;99.90;;;;;;5080592;28;20749;-68
2022/10/24 09:49:08;;;;;;;3.37;2.97;;;19.20;99.90;;;;;;5080271;28;20407;-68
2022/10/24 09:51:44;;;;;;;4.33;2.47;;;19.10;99.90;;;;;;4987606;28;20461;-68
2022/10/24 09:54:19;;;;;;;3.07;2.87;;;19.10;99.90;;;;;;5080059;28;20411;-68
2022/10/24 09:56:50;;;;;;;2.80;2.60;;;19.10;99.90;;;;;;5080433;28;20925;-69
2022/10/24 09:59:34;;;;;;;7.80;3.20;;;19.10;99.90;;;;;;5080043;28;20410;-69
2022/10/24 10:02:09;;;;;;;4.20;3.90;;;19.00;99.90;;;;;;5088063;28;20458;-68
2022/10/24 10:04:36;;;;;;;6.83;6.43;;;19.00;99.90;;;;;;5081629;28;20428;-68
2022/10/24 10:07:10;;;;;;;2.50;2.30;;;19.00;99.90;;;;;;5080970;28;20412;-67
2022/10/24 10:09:41;;;;;;;3.10;2.80;;;18.90;99.90;;;;;;5079793;28;20413;-68
2022/10/24 10:12:33;;;;;;;3.00;2.50;;;18.90;99.90;;;;;;5082003;28;20399;-68
2022/10/24 10:15:31;;;;;;;4.07;3.47;;;18.90;99.90;;;;;;5081608;28;20431;-68
2022/10/24 10:18:02;;;;;;;3.83;3.03;;;18.90;99.90;;;;;;5074001;28;20547;-68
2022/10/24 10:20:36;;;;;;;5.23;3.60;;;18.80;99.90;;;;;;5080929;28;20446;-68
2022/10/24 10:23:21;;;;;;;4.47;4.07;;;18.80;99.90;;;;;;5083430;28;20408;-68
2022/10/24 10:25:47;;;;;;;3.90;2.47;;;18.90;99.90;;;;;;5085740;28;20398;-68
2022/10/24 10:28:21;;;;;;;2.43;2.23;;;18.80;99.90;;;;;;5084341;28;20409;-68
2022/10/24 10:30:54;;;;;;;5.57;2.40;;;18.80;99.90;;;;;;5092866;28;20187;-68
2022/10/24 10:33:35;;;;;;;5.67;2.67;;;18.80;99.90;;;;;;5087733;28;20411;-68
2022/10/24 10:36:12;;;;;;;3.50;3.30;;;18.80;99.90;;;;;;5093869;28;20406;-68
2022/10/24 10:39:11;;;;;;;4.53;4.23;;;18.70;99.90;;;;;;5078942;28;20410;-68
2022/10/24 10:41:56;;;;;;;3.13;2.80;;;18.70;99.90;;;;;;5074424;28;20411;-68
2022/10/24 10:44:35;;;;;;;4.40;2.90;;;18.70;99.90;;;;;;5065048;28;20944;-69
2022/10/24 10:47:25;;;;;;;4.10;1.83;;;18.70;99.90;;;;;;5085071;28;20829;-68
2022/10/24 10:49:56;;;;;;;4.23;1.80;;;18.80;99.90;;;;;;5039749;28;20781;-68
2022/10/24 10:52:31;;;;;;;4.10;3.80;;;18.80;99.90;;;;;;5082468;28;20412;-70
2022/10/24 10:55:20;;;;;;;4.30;3.90;;;18.90;99.90;;;;;;5069076;28;20760;-67
2022/10/24 10:58:13;;;;;;;4.93;2.67;;;19.00;99.90;;;;;;5094986;28;20894;-67
2022/10/24 11:00:45;;;;;;;2.90;2.70;;;19.00;99.90;;;;;;5092215;28;20780;-68
2022/10/24 11:03:46;;;;;;;3.00;2.80;;;19.00;99.90;;;;;;5082550;28;20471;-67
2022/10/24 11:06:40;;;;;;;3.47;3.27;;;19.10;99.90;;;;;;5029316;28;20418;-67
2022/10/24 11:09:24;;;;;;;3.10;2.80;;;19.10;99.90;;;;;;5067456;28;20418;-67
2022/10/24 11:12:07;;;;;;;6.40;3.33;;;19.10;99.90;;;;;;5084287;28;20412;-68
2022/10/24 11:14:47;;;;;;;2.73;2.50;;;19.10;99.90;;;;;;5081337;28;20396;-67
2022/10/24 11:17:26;;;;;;;6.40;2.87;;;19.10;99.90;;;;;;5061058;28;20563;-67
2022/10/24 11:20:13;;;;;;;3.57;3.27;;;19.10;99.90;;;;;;5084717;28;20458;-68
2022/10/24 11:22:49;;;;;;;5.20;2.67;;;19.00;99.90;;;;;;5081769;28;20411;-67
2022/10/24 11:25:44;;;;;;;4.87;3.87;;;19.00;99.90;;;;;;5082814;28;20755;-67
2022/10/24 11:28:38;;;;;;;3.43;3.20;;;19.00;99.90;;;;;;5079518;28;20799;-67
2022/10/24 11:31:10;;;;;;;7.00;4.43;;;18.90;99.90;;;;;;5082400;28;20398;-68
2022/10/24 11:33:58;;;;;;;3.50;3.20;;;18.90;99.90;;;;;;5081446;28;20404;-67
2022/10/24 11:36:45;;;;;;;3.63;3.37;;;18.90;99.90;;;;;;5083060;28;20415;-67
2022/10/24 11:39:21;;;;;;;4.93;3.30;;;18.90;99.90;;;;;;5084546;28;20885;-67
2022/10/24 11:42:07;;;;;;;4.00;3.37;;;18.90;99.90;;;;;;5083903;28;20407;-67
2022/10/24 11:44:40;;;;;;;4.50;3.30;;;18.90;99.90;;;;;;5058656;28;20786;-68
2022/10/24 11:47:23;;;;;;;5.10;3.10;;;18.90;99.90;;;;;;5076967;28;20459;-67
2022/10/24 11:50:19;;;;;;;5.27;2.27;;;18.90;99.90;;;;;;5074336;28;20931;-67
2022/10/24 11:52:50;;;;;;;2.00;1.90;;;18.90;99.90;;;;;;5081018;28;20409;-67
2022/10/24 11:55:23;;;;;;;5.53;3.50;;;18.90;99.80;;;;;;5081479;28;20775;-67
2022/10/24 11:57:58;;;;;;;5.70;3.43;;;18.90;99.70;;;;;;5082638;28;20411;-67
2022/10/24 12:00:32;;;;;;;3.17;2.10;;;18.90;99.90;;;;;;5082040;28;20457;-67
2022/10/24 12:03:28;;;;;;;3.37;2.30;;;18.90;99.30;;;;;;5059814;28;20846;-67
2022/10/24 12:06:21;;;;;;;3.77;2.90;;;18.90;99.10;;;;;;5072744;28;20825;-67
2022/10/24 12:08:56;;;;;;;3.20;2.63;;;18.90;99.30;;;;;;5075478;28;20411;-66
2022/10/24 12:11:52;;;;;;;7.33;3.00;;;18.90;99.30;;;;;;5077471;28;20421;-73
2022/10/24 12:14:32;;;;;;;5.07;2.60;;;18.80;99.00;;;;;;5071275;28;20416;-71
2022/10/24 12:17:18;;;;;;;4.60;4.20;;;18.80;99.90;;;;;;5070807;28;20459;-72
2022/10/24 12:19:45;;;;;;;5.43;3.70;;;18.80;99.90;;;;;;5070817;28;20487;-72
2022/10/24 12:22:24;;;;;;;3.80;3.10;;;18.90;99.90;;;;;;5071536;28;20462;-71
2022/10/24 12:25:21;;;;;;;6.80;2.53;;;18.90;99.80;;;;;;5071847;28;20398;-71
2022/10/24 12:28:00;;;;;;;3.33;2.67;;;18.80;99.80;;;;;;5057564;28;20423;-72
2022/10/24 12:30:28;;;;;;;4.87;4.43;;;18.80;99.90;;;;;;5070821;28;20439;-71
2022/10/24 12:33:10;;;;;;;2.80;2.60;;;18.70;99.90;;;;;;5072669;28;20438;-71
2022/10/24 12:35:45;;;;;;;3.70;2.37;;;18.80;99.90;;;;;;5071948;28;20779;-74
2022/10/24 12:38:26;;;;;;;6.23;2.37;;;18.80;99.90;;;;;;5086883;28;20422;-72
2022/10/24 12:40:58;;;;;;;3.30;3.07;;;18.90;99.90;;;;;;5089458;28;20816;-73
2022/10/24 12:43:37;;;;;;;3.40;2.80;;;18.90;99.90;;;;;;5070431;28;20422;-74
2022/10/24 12:46:14;;;;;;;6.13;3.13;;;18.90;99.90;;;;;;5089177;28;20423;-71
2022/10/24 12:49:04;;;;;;;3.57;2.37;;;19.00;99.90;;;;;;5056803;28;20776;-71
2022/10/24 12:51:40;;;;;;;3.97;2.40;;;19.00;99.90;;;;;;5075099;28;20905;-72
2022/10/24 12:54:12;;;;;;;2.73;2.30;;;19.00;99.90;;;;;;5073884;28;20429;-69
2022/10/24 12:56:52;;;;;;;3.87;2.33;;;19.00;99.90;;;;;;5073120;28;20510;-72
2022/10/24 12:59:44;;;;;;;4.27;2.23;;;19.00;99.80;;;;;;5073855;28;20418;-71
2022/10/24 13:02:12;;;;;;;4.17;2.80;;;19.00;99.90;;;;;;5073837;28;20494;-71
2022/10/24 13:04:38;;;;;;;5.17;2.40;;;18.90;99.90;;;;;;5074158;28;20419;-71
2022/10/24 13:07:28;;;;;;;2.67;2.00;;;18.90;99.90;;;;;;5074187;28;20412;-71
2022/10/24 13:10:19;;;;;;;6.17;2.40;;;18.90;99.90;;;;;;5073156;28;20173;-69